Time,TemperatureF,DewpointF,PressureIn,WindDirection,WindDirectionDegrees,WindSpeedMPH,WindSpeedGustMPH,Humidity,HourlyPrecipIn,Conditions,Clouds,dailyrainin,SolarRadiationWatts/m^2,SoftwareType,DateUTC
2013-02-03 00:09:00,43.9,33.0,30.18,NNW,342,0.0,0.0,66,0.00,,,0.00,0,weatherlink.com 1.10,2013-02-03 08:09:00,
2013-02-03 00:24:00,43.8,33.0,30.18,NNW,342,0.0,0.0,65,0.00,,,0.00,0,weatherlink.com 1.10,2013-02-03 08:24:00,
2013-02-03 00:39:00,43.6,33.0,30.17,NNW,342,0.0,0.0,66,0.00,,,0.00,0,weatherlink.com 1.10,2013-02-03 08:39:00,
2013-02-03 00:54:00,43.3,32.0,30.17,NNW,342,0.0,0.0,65,0.00,,,0.00,0,weatherlink.com 1.10,2013-02-03 08:54:00,
2013-02-03 01:09:00,42.9,32.0,30.17,NNW,342,0.0,0.0,65,0.00,,,0.00,0,weatherlink.com 1.10,2013-02-03 09:09:00,
2013-02-03 01:24:00,42.5,31.0,30.17,NNW,342,0.0,0.0,65,0.00,,,0.00,0,weatherlink.com 1.10,2013-02-03 09:24:00,
2013-02-03 01:39:00,42.2,31.0,30.17,NNW,342,0.0,0.0,64,0.00,,,0.00,0,weatherlink.com 1.10,2013-02-03 09:39:00,
2013-02-03 01:54:00,42.2,31.0,30.16,NNW,342,0.0,0.0,64,0.00,,,0.00,0,weatherlink.com 1.10,2013-02-03 09:54:00,
2013-02-03 02:09:00,42.1,31.0,30.17,NNW,342,0.0,0.0,64,0.00,,,0.00,0,weatherlink.com 1.10,2013-02-03 10:09:00,
2013-02-03 02:24:00,41.9,30.0,30.17,NNW,342,0.0,0.0,64,0.00,,,0.00,0,weatherlink.com 1.10,2013-02-03 10:24:00,
2013-02-03 02:39:00,41.9,30.0,30.17,NNW,342,0.0,0.0,63,0.00,,,0.00,0,weatherlink.com 1.10,2013-02-03 10:39:00,
2013-02-03 02:54:00,41.9,30.0,30.16,NNW,342,0.0,0.0,63,0.00,,,0.00,0,weatherlink.com 1.10,2013-02-03 10:54:00,
2013-02-03 03:09:00,41.8,29.0,30.16,NNW,342,0.0,0.0,62,0.00,,,0.00,0,weatherlink.com 1.10,2013-02-03 11:09:00,
2013-02-03 03:24:00,41.6,29.0,30.16,NNW,342,0.0,0.0,61,0.00,,,0.00,0,weatherlink.com 1.10,2013-02-03 11:24:00,
2013-02-03 03:39:00,41.5,29.0,30.15,NNW,342,0.0,0.0,61,0.00,,,0.00,0,weatherlink.com 1.10,2013-02-03 11:39:00,
2013-02-03 03:54:00,41.5,29.0,30.15,NNW,342,0.0,0.0,61,0.00,,,0.00,0,weatherlink.com 1.10,2013-02-03 11:54:00,
2013-02-03 04:09:00,41.5,28.0,30.15,NNW,342,0.0,0.0,60,0.00,,,0.00,0,weatherlink.com 1.10,2013-02-03 12:09:00,
2013-02-03 04:24:00,41.3,28.0,30.15,NNW,342,0.0,0.0,60,0.00,,,0.00,0,weatherlink.com 1.10,2013-02-03 12:24:00,
2013-02-03 04:39:00,41.2,29.0,30.15,NNW,342,0.0,0.0,61,0.00,,,0.00,0,weatherlink.com 1.10,2013-02-03 12:39:00,
2013-02-03 04:54:00,40.9,29.0,30.15,NNW,342,0.0,0.0,62,0.00,,,0.00,0,weatherlink.com 1.10,2013-02-03 12:54:00,
2013-02-03 05:09:00,40.5,29.0,30.16,NNW,342,0.0,0.0,63,0.00,,,0.00,0,weatherlink.com 1.10,2013-02-03 13:09:00,
2013-02-03 05:24:00,40.2,28.0,30.16,NNW,342,0.0,0.0,62,0.00,,,0.00,0,weatherlink.com 1.10,2013-02-03 13:24:00,
2013-02-03 05:40:00,39.9,27.0,30.16,NNW,342,0.0,0.0,61,0.00,,,0.00,0,weatherlink.com 1.10,2013-02-03 13:40:00,
2013-02-03 05:54:00,39.6,27.0,30.16,NNW,342,0.0,0.0,62,0.00,,,0.00,0,weatherlink.com 1.10,2013-02-03 13:54:00,
2013-02-03 06:09:00,39.3,27.0,30.16,NNW,342,0.0,0.0,62,0.00,,,0.00,0,weatherlink.com 1.10,2013-02-03 14:09:00,
2013-02-03 06:24:00,38.9,27.0,30.17,NNW,342,0.0,0.0,63,0.00,,,0.00,0,weatherlink.com 1.10,2013-02-03 14:24:00,
2013-02-03 06:40:00,38.8,27.0,30.17,NNW,342,0.0,0.0,62,0.00,,,0.00,0,weatherlink.com 1.10,2013-02-03 14:40:00,
2013-02-03 06:54:00,38.9,26.0,30.17,NNW,342,0.0,0.0,61,0.00,,,0.00,0,weatherlink.com 1.10,2013-02-03 14:54:00,
2013-02-03 07:09:00,39.1,26.0,30.17,NNW,342,0.0,0.0,60,0.00,,,0.00,0,weatherlink.com 1.10,2013-02-03 15:09:00,
2013-02-03 07:24:00,40.1,26.0,30.17,NNW,342,0.0,2.0,57,0.00,,,0.00,5,weatherlink.com 1.10,2013-02-03 15:24:00,
2013-02-03 07:39:00,41.6,25.0,30.16,NNW,342,0.0,0.0,53,0.00,,,0.00,9,weatherlink.com 1.10,2013-02-03 15:39:00,
2013-02-03 07:54:00,42.1,26.0,30.17,NNW,342,0.0,0.0,53,0.00,,,0.00,11,weatherlink.com 1.10,2013-02-03 15:54:00,
2013-02-03 08:09:00,42.1,26.0,30.17,NNW,342,0.0,0.0,54,0.00,,,0.00,14,weatherlink.com 1.10,2013-02-03 16:09:00,
2013-02-03 08:25:00,42.1,27.0,30.17,NNW,342,0.0,0.0,55,0.00,,,0.00,23,weatherlink.com 1.10,2013-02-03 16:25:00,
2013-02-03 08:39:00,42.2,28.0,30.16,NNW,342,0.0,0.0,58,0.00,,,0.00,25,weatherlink.com 1.10,2013-02-03 16:39:00,
2013-02-03 08:54:00,42.9,29.0,30.17,NNW,342,0.0,0.0,58,0.00,,,0.00,30,weatherlink.com 1.10,2013-02-03 16:54:00,
2013-02-03 09:10:00,44.5,31.0,30.17,NNW,342,0.0,0.0,59,0.00,,,0.00,104,weatherlink.com 1.10,2013-02-03 17:10:00,
2013-02-03 09:25:00,47.7,32.0,30.18,NNW,342,0.0,0.0,56,0.00,,,0.00,60,weatherlink.com 1.10,2013-02-03 17:25:00,
2013-02-03 09:40:00,49.2,33.0,30.18,NNW,342,0.0,0.0,53,0.00,,,0.00,72,weatherlink.com 1.10,2013-02-03 17:40:00,
2013-02-03 09:55:00,50.8,32.0,30.18,NNW,342,0.0,0.0,49,0.00,,,0.00,257,weatherlink.com 1.10,2013-02-03 17:55:00,
2013-02-03 10:10:00,52.2,30.0,30.19,NNW,342,0.0,1.0,43,0.00,,,0.00,148,weatherlink.com 1.10,2013-02-03 18:10:00,
2013-02-03 10:25:00,53.1,32.0,30.19,NNW,342,0.0,0.0,44,0.00,,,0.00,67,weatherlink.com 1.10,2013-02-03 18:25:00,
2013-02-03 10:40:00,55.0,30.0,30.19,NW,316,0.0,1.0,39,0.00,,,0.00,190,weatherlink.com 1.10,2013-02-03 18:40:00,
2013-02-03 10:55:00,55.3,33.0,30.19,NW,304,0.0,4.0,43,0.00,,,0.00,174,weatherlink.com 1.10,2013-02-03 18:55:00,
2013-02-03 11:10:00,55.6,34.0,30.18,SSW,199,0.0,4.0,44,0.00,,,0.00,49,weatherlink.com 1.10,2013-02-03 19:10:00,
2013-02-03 11:25:00,55.7,34.0,30.18,South,180,0.0,3.0,44,0.00,,,0.00,42,weatherlink.com 1.10,2013-02-03 19:25:00,
2013-02-03 11:55:00,57.2,36.0,30.16,NW,315,0.0,3.0,46,0.00,,,0.00,54,weatherlink.com 1.10,2013-02-03 19:55:00,
2013-02-03 12:25:00,58.4,36.0,30.14,WNW,284,0.0,2.0,43,0.00,,,0.00,139,weatherlink.com 1.10,2013-02-03 20:25:00,
2013-02-03 12:40:00,58.6,35.0,30.14,NNW,348,0.0,3.0,41,0.00,,,0.00,121,weatherlink.com 1.10,2013-02-03 20:40:00,
2013-02-03 12:55:00,59.6,36.0,30.13,WNW,284,0.0,4.0,42,0.00,,,0.00,392,weatherlink.com 1.10,2013-02-03 20:55:00,
2013-02-03 13:10:00,60.7,35.0,30.12,NNW,336,0.0,3.0,39,0.00,,,0.00,592,weatherlink.com 1.10,2013-02-03 21:10:00,
2013-02-03 13:25:00,61.5,35.0,30.11,NW,313,1.0,3.0,37,0.00,,,0.00,580,weatherlink.com 1.10,2013-02-03 21:25:00,
2013-02-03 13:40:00,61.5,35.0,30.11,WNW,284,0.0,3.0,38,0.00,,,0.00,459,weatherlink.com 1.10,2013-02-03 21:40:00,
2013-02-03 13:56:00,61.5,37.0,30.11,WNW,295,0.0,3.0,41,0.00,,,0.00,95,weatherlink.com 1.10,2013-02-03 21:56:00,
2013-02-03 14:10:00,60.5,38.0,30.11,WNW,292,0.0,5.0,44,0.00,,,0.00,107,weatherlink.com 1.10,2013-02-03 22:10:00,
2013-02-03 14:25:00,59.9,39.0,30.11,NNW,336,0.0,4.0,47,0.00,,,0.00,58,weatherlink.com 1.10,2013-02-03 22:25:00,
2013-02-03 14:40:00,59.2,40.0,30.10,ESE,107,0.0,2.0,50,0.00,,,0.00,58,weatherlink.com 1.10,2013-02-03 22:40:00,
2013-02-03 14:56:00,58.1,41.0,30.11,NNW,338,0.0,4.0,53,0.00,,,0.00,53,weatherlink.com 1.10,2013-02-03 22:56:00,
2013-02-03 15:11:00,56.9,41.0,30.11,WNW,284,0.0,4.0,55,0.00,,,0.00,58,weatherlink.com 1.10,2013-02-03 23:11:00,
2013-02-03 15:26:00,56.6,41.0,30.11,WNW,301,0.0,1.0,57,0.00,,,0.00,37,weatherlink.com 1.10,2013-02-03 23:26:00,
2013-02-03 15:40:00,56.5,41.0,30.11,WNW,301,0.0,1.0,57,0.00,,,0.00,44,weatherlink.com 1.10,2013-02-03 23:40:00,
2013-02-03 15:56:00,56.2,40.0,30.11,WNW,301,1.0,1.0,56,0.00,,,0.00,30,weatherlink.com 1.10,2013-02-03 23:56:00,
2013-02-03 16:11:00,55.9,41.0,30.10,WNW,301,0.0,0.0,58,0.00,,,0.00,28,weatherlink.com 1.10,2013-02-04 00:11:00,
2013-02-03 16:25:00,55.3,41.0,30.09,WNW,301,0.0,0.0,60,0.00,,,0.00,23,weatherlink.com 1.10,2013-02-04 00:25:00,
2013-02-03 16:40:00,54.8,42.0,30.09,WNW,301,0.0,0.0,62,0.00,,,0.00,19,weatherlink.com 1.10,2013-02-04 00:40:00,
2013-02-03 16:55:00,54.5,42.0,30.09,WNW,301,0.0,0.0,62,0.00,,,0.00,14,weatherlink.com 1.10,2013-02-04 00:55:00,
2013-02-03 17:10:00,53.9,41.0,30.09,WNW,301,0.0,0.0,63,0.00,,,0.00,9,weatherlink.com 1.10,2013-02-04 01:10:00,
2013-02-03 17:25:00,52.8,42.0,30.09,WNW,301,0.0,0.0,66,0.00,,,0.00,0,weatherlink.com 1.10,2013-02-04 01:25:00,
2013-02-03 17:40:00,51.7,41.0,30.09,WNW,301,0.0,0.0,68,0.00,,,0.00,0,weatherlink.com 1.10,2013-02-04 01:40:00,
2013-02-03 17:56:00,50.5,41.0,30.10,WNW,301,0.0,0.0,69,0.00,,,0.00,0,weatherlink.com 1.10,2013-02-04 01:56:00,
2013-02-03 18:11:00,50.5,41.0,30.09,WNW,301,0.0,0.0,69,0.00,,,0.00,0,weatherlink.com 1.10,2013-02-04 02:11:00,
2013-02-03 18:26:00,50.4,41.0,30.11,WNW,301,0.0,0.0,69,0.00,,,0.00,0,weatherlink.com 1.10,2013-02-04 02:26:00,
2013-02-03 18:41:00,49.8,40.0,30.11,WNW,301,0.0,0.0,69,0.00,,,0.00,0,weatherlink.com 1.10,2013-02-04 02:41:00,
2013-02-03 18:56:00,49.4,40.0,30.11,WNW,301,0.0,0.0,70,0.00,,,0.00,0,weatherlink.com 1.10,2013-02-04 02:56:00,
2013-02-03 19:11:00,49.1,40.0,30.11,WNW,301,0.0,0.0,70,0.00,,,0.00,0,weatherlink.com 1.10,2013-02-04 03:11:00,
2013-02-03 19:26:00,48.6,40.0,30.11,WNW,301,0.0,0.0,73,0.00,,,0.00,0,weatherlink.com 1.10,2013-02-04 03:26:00,
2013-02-03 19:41:00,48.3,40.0,30.11,WNW,301,0.0,0.0,73,0.00,,,0.00,0,weatherlink.com 1.10,2013-02-04 03:41:00,
2013-02-03 19:56:00,47.9,40.0,30.11,WNW,301,0.0,0.0,74,0.00,,,0.00,0,weatherlink.com 1.10,2013-02-04 03:56:00,
2013-02-03 20:11:00,47.3,40.0,30.11,WNW,301,0.0,0.0,75,0.00,,,0.00,0,weatherlink.com 1.10,2013-02-04 04:11:00,
2013-02-03 20:26:00,46.8,40.0,30.11,WNW,301,0.0,0.0,77,0.00,,,0.00,0,weatherlink.com 1.10,2013-02-04 04:26:00,
2013-02-03 20:41:00,46.7,40.0,30.11,WNW,301,0.0,0.0,78,0.00,,,0.00,0,weatherlink.com 1.10,2013-02-04 04:41:00,
2013-02-03 20:56:00,46.2,40.0,30.11,WNW,301,0.0,0.0,78,0.00,,,0.00,0,weatherlink.com 1.10,2013-02-04 04:56:00,
2013-02-03 21:11:00,45.8,40.0,30.11,WNW,301,0.0,0.0,79,0.00,,,0.00,0,weatherlink.com 1.10,2013-02-04 05:11:00,
2013-02-03 21:26:00,45.7,40.0,30.11,WNW,301,0.0,0.0,81,0.00,,,0.00,0,weatherlink.com 1.10,2013-02-04 05:26:00,
2013-02-03 21:41:00,46.0,41.0,30.11,WNW,301,0.0,0.0,81,0.00,,,0.00,0,weatherlink.com 1.10,2013-02-04 05:41:00,
2013-02-03 21:56:00,45.5,40.0,30.11,WNW,301,0.0,0.0,80,0.00,,,0.00,0,weatherlink.com 1.10,2013-02-04 05:56:00,
2013-02-03 22:11:00,44.9,39.0,30.11,WNW,301,0.0,0.0,80,0.00,,,0.00,0,weatherlink.com 1.10,2013-02-04 06:11:00,
2013-02-03 22:26:00,44.5,39.0,30.11,WNW,301,0.0,1.0,80,0.00,,,0.00,0,weatherlink.com 1.10,2013-02-04 06:26:00,
2013-02-03 22:41:00,44.3,38.0,30.11,WNW,301,0.0,0.0,79,0.00,,,0.00,0,weatherlink.com 1.10,2013-02-04 06:41:00,
2013-02-03 22:56:00,44.2,38.0,30.12,WNW,301,0.0,0.0,78,0.00,,,0.00,0,weatherlink.com 1.10,2013-02-04 06:56:00,
2013-02-03 23:11:00,43.9,37.0,30.12,WNW,301,0.0,0.0,77,0.00,,,0.00,0,weatherlink.com 1.10,2013-02-04 07:11:00,
2013-02-03 23:26:00,43.3,37.0,30.12,WNW,301,0.0,0.0,77,0.00,,,0.00,0,weatherlink.com 1.10,2013-02-04 07:26:00,
2013-02-03 23:41:00,42.8,36.0,30.12,WNW,301,0.0,0.0,78,0.00,,,0.00,0,weatherlink.com 1.10,2013-02-04 07:41:00,
2013-02-03 23:56:00,42.2,35.0,30.11,WNW,301,0.0,0.0,77,0.00,,,0.00,0,weatherlink.com 1.10,2013-02-04 07:56:00,